Terminal Aerodrome Forecast
Issued by NWS

Home | Current Version | Previous Version | Text Only | Print | Product List | Glossary On
Versions: 1 2 3 4 5 6 7 8 9 10 11 12 13 14 15 16 17 18
227
FTUS43 KICT 241722
TAFCNU
TAF
KCNU 241722Z 2418/2518 17021G31KT P6SM BKN050
     FM250000 16015KT P6SM VCTS BKN090CB
     FM250300 11006KT P6SM VCTS SCT030 OVC080CB
     FM250500 04006KT P6SM VCSH OVC035
     FM250900 35007KT P6SM VCSH OVC040
     FM251000 33010KT P6SM VCSH OVC015=

USA.gov is the U.S. government's official web portal to all federal, state and local government web resources and services.